Flight Track Log - Related Links

Times and Time Zones

All times are in EDT time to prevent confusion due to time zone crossing. See the UAL3787 flight status page for this flight to view local times or setup timezone preferences in your user account.

Time Position Orientation Groundspeed Altitude Reporting Facility
EDT Latitude Longitude Course Direction KTS MPH feet Rate Location/Type
Thu 06:10:04 AM 36.8825 -76.2178 212° Southwest 150 173 700  Level Washington Center
Thu 06:10:16 AM 36.8761 -76.2228 212° Southwest 148 170 1,300 1,890 Climbing Washington Center
Thu 06:11:17 AM 36.8344 -76.2589 215° Southwest 208 239 3,000 1,756 Climbing Washington Center
Thu 06:12:19 AM 36.7986 -76.3233 235° Southwest 268 308 4,900 2,311 Climbing Washington Center
Thu 06:13:19 AM 36.8250 -76.4119 290° West 273 314 7,700 2,565 Climbing Washington Center
Thu 06:14:23 AM 36.8597 -76.5056 295° West 295 339 10,200 1,887 Climbing Washington Center
Thu 06:15:23 AM 36.8903 -76.6022 292° West 300 345 11,600 1,750 Climbing Washington Center
Thu 06:16:23 AM 36.9269 -76.7117 293° West 314 361 13,700 1,934 Climbing Washington Center
Thu 06:17:24 AM 36.9656 -76.8214 294° West 338 389 15,500 1,835 Climbing Washington Center
Thu 06:18:24 AM 37.0039 -76.9392 292° West 357 411 17,400 1,916 Climbing Washington Center
Thu 06:19:23 AM 37.0442 -77.0569 293° West 362 417 19,300 1,750 Climbing Washington Center
Thu 06:20:24 AM 37.0697 -77.1822 284° West 372 428 20,900 1,412 Climbing Washington Center
Thu 06:21:22 AM 37.0931 -77.3131 283° West 377 434 22,100 1,322 Climbing Washington Center
Thu 06:22:22 AM 37.1161 -77.4489 282° West 389 448 23,500 1,377 Climbing Washington Center
Thu 06:23:24 AM 37.1408 -77.5875 283° West 401 461 24,900 1,230 Climbing Washington Center
Thu 06:24:24 AM 37.1656 -77.7264 283° West 406 467 26,000 1,068 Climbing Washington Center
Thu 06:25:22 AM 37.2069 -77.8606 291° West 416 479 27,000 1,050 Climbing Washington Center
Thu 06:26:24 AM 37.2775 -77.9828 306° West 416 479 28,100 1,050 Climbing Washington Center
Thu 06:27:22 AM 37.3481 -78.1050 306° West 422 486 29,100 864 Climbing Washington Center
Thu 06:28:22 AM 37.4225 -78.2306 307° West 440 506 29,800 893 Climbing Washington Center
Thu 06:29:23 AM 37.4889 -78.3453 306° West 445 512 30,900 1,150 Climbing Washington Center
Thu 06:30:22 AM 37.5569 -78.4708 304° West 445 512 32,100 1,200 Climbing Washington Center
Thu 06:31:23 AM 37.6247 -78.5967 304° West 445 512 33,300 1,230 Climbing Washington Center
Thu 06:32:24 AM 37.7003 -78.7361 304° West 435 501 34,600 1,131 Climbing Washington Center
Thu 06:33:25 AM 37.7681 -78.8572 305° West 430 495 35,600 706 Climbing Washington Center
Thu 06:34:23 AM 37.8356 -78.9811 305° West 430 495 36,000 203 Climbing Washington Center
Thu 06:35:23 AM 37.8989 -79.0944 305° West 430 495 36,000  Level Washington Center
Thu 06:36:25 AM 37.9789 -79.2167 310° West 442 509 36,000  Level Washington Center
Thu 06:37:22 AM 38.0564 -79.3367 309° West 448 516 36,000  Level Washington Center
Thu 06:38:23 AM 38.1400 -79.4622 310° West 448 516 36,000  Level Washington Center
Thu 06:39:22 AM 38.2175 -79.5797 310° West 435 501 36,000  Level Washington Center
Thu 06:40:25 AM 38.2928 -79.7003 309° West 435 501 36,000 49 Level Washington Center
Thu 06:41:25 AM 38.3622 -79.8022 311° West 435 501 36,100 610 Climbing Washington Center
Thu 06:42:23 AM 38.4372 -79.9178 310° West 435 501 37,200 950 Climbing Washington Center
Thu 06:43:25 AM 38.5103 -80.0308 310° West 425 489 38,000 227 Climbing Washington Center
Thu 06:45:54 AM 38.7033 -80.3283 310° West 428 493 38,000  Level Indianapolis Center
Thu 06:46:55 AM 38.7797 -80.4456 310° West 429 494 38,000  Level Indianapolis Center
Thu 06:47:56 AM 38.8547 -80.5619 310° West 426 490 38,000  Level Indianapolis Center
Thu 06:48:57 AM 38.9275 -80.6756 309° West 418 481 38,000  Level Indianapolis Center
Thu 06:49:57 AM 39.0006 -80.7914 309° West 418 481 38,000  Level Indianapolis Center
Thu 06:50:58 AM 39.0583 -80.9222 300° West 423 487 38,000  Level Indianapolis Center
Thu 06:51:59 AM 39.1133 -81.0528 299° West 420 483 38,000  Level Indianapolis Center
Thu 06:53:00 AM 39.1672 -81.1844 298° West 418 481 38,000  Level Indianapolis Center
Thu 06:54:01 AM 39.2217 -81.3147 298° West 416 479 38,000  Level Indianapolis Center
Thu 06:55:02 AM 39.2739 -81.4425 298° West 408 470 38,000  Level Indianapolis Center
Thu 06:56:02 AM 39.3244 -81.5669 298° West 397 457 38,000  Level Indianapolis Center
Thu 06:57:03 AM 39.3733 -81.6897 297° West 389 448 38,000  Level Indianapolis Center
Thu 06:58:04 AM 39.4239 -81.8122 298° West 387 445 38,000  Level Indianapolis Center
Thu 06:59:05 AM 39.4814 -81.9578 297° West 381 438 38,000  Level Indianapolis Center
Thu 07:00:06 AM 39.5303 -82.0803 297° West 383 441 38,000  Level Indianapolis Center
Thu 07:01:07 AM 39.5806 -82.2050 298° West 383 441 38,000  Level Indianapolis Center
Thu 07:02:08 AM 39.6289 -82.3283 297° West 384 442 38,000  Level Indianapolis Center
Thu 07:03:09 AM 39.6769 -82.4506 297° West 383 441 38,000  Level Indianapolis Center
Thu 07:04:10 AM 39.7253 -82.5711 298° West 380 437 38,000  Level Indianapolis Center
Thu 07:05:11 AM 39.7722 -82.6928 297° West 378 435 38,000  Level Indianapolis Center
Thu 07:06:12 AM 39.8194 -82.8131 297° West 376 433 38,000  Level Indianapolis Center
Thu 07:07:13 AM 39.8497 -82.9386 287° West 370 426 38,000  Level Indianapolis Center
Thu 07:08:14 AM 39.8658 -83.0728 279° West 377 434 38,000  Level Indianapolis Center
Thu 07:09:15 AM 39.8817 -83.2047 279° West 372 428 38,000  Level Indianapolis Center
Thu 07:10:16 AM 39.8981 -83.3369 279° West 374 430 38,000  Level Indianapolis Center
Thu 07:11:17 AM 39.9136 -83.4736 278° West 376 433 38,000  Level Indianapolis Center
Thu 07:12:18 AM 39.9308 -83.6217 279° West 371 427 38,000  Level Indianapolis Center
Thu 07:13:19 AM 39.9461 -83.7536 279° West 372 428 38,000 49 Level Indianapolis Center
Thu 07:14:20 AM 39.9600 -83.8828 278° West 366 421 38,100  Climbing Indianapolis Center
Thu 07:15:21 AM 39.9742 -84.0153 278° West 369 425 38,000 -49 Descending Indianapolis Center
Thu 07:16:22 AM 39.9903 -84.1508 279° West 376 433 38,000  Level Indianapolis Center
Thu 07:17:23 AM 40.0056 -84.2903 278° West 385 443 38,000  Level Indianapolis Center
Thu 07:18:24 AM 40.0497 -84.4167 295° West 385 443 38,000 -492 Level Indianapolis Center
Thu 07:19:25 AM 40.1539 -84.5200 323° Northwest 393 452 37,000 -1,230 Descending Indianapolis Center
Thu 07:20:26 AM 40.2522 -84.5939 330° Northwest 404 465 35,500 -1,328 Descending Indianapolis Center
Thu 07:21:27 AM 40.3503 -84.6708 329° Northwest 409 471 34,300 -738 Descending Indianapolis Center
Thu 07:22:28 AM 40.4453 -84.7467 329° Northwest 402 463 34,000 -146 Descending Indianapolis Center
Thu 07:23:30 AM 40.5394 -84.8236 328° Northwest 399 459 34,000  Level Indianapolis Center
Thu 07:24:31 AM 40.6342 -84.9008 328° Northwest 401 461 34,000 -148 Level Indianapolis Center
Thu 07:25:32 AM 40.7253 -84.9756 328° Northwest 405 466 33,700 -934 Descending Indianapolis Center
Thu 07:26:33 AM 40.8250 -85.0594 328° Northwest 426 490 32,100 -1,672 Descending Indianapolis Center
Thu 07:27:34 AM 40.9308 -85.2047 314° West 460 529 30,300 -1,623 Descending Indianapolis Center
Thu 07:28:35 AM 40.9992 -85.3386 304° West 447 514 28,800 -1,463 Descending Indianapolis Center
Thu 07:29:37 AM 41.0672 -85.4664 305° West 434 499 27,300 -1,463 Descending Indianapolis Center
Thu 07:30:38 AM 41.1350 -85.5947 305° West 429 494 25,800 -1,131 Descending Indianapolis Center
Thu 07:31:39 AM 41.1972 -85.7175 304° West 410 472 25,000 -393 Descending Indianapolis Center
Thu 07:32:40 AM 41.2581 -85.8353 305° West 394 453 25,000  Level Indianapolis Center
Thu 07:33:42 AM 41.2775 -85.9719 281° West 384 442 25,000  Level Indianapolis Center
Thu 07:34:43 AM 41.2917 -86.1106 278° West 381 438 25,000 -393 Level Indianapolis Center
Thu 07:35:44 AM 41.3119 -86.2767 279° West 382 440 24,200 -1,415 Descending Indianapolis Center
Thu 07:36:46 AM 41.3269 -86.4119 278° West 375 432 22,100 -2,167 Descending Indianapolis Center
Thu 07:38:08 AM 41.3617 -86.5783 286° West 376 433 19,000 -2,308 Descending Chicago Center
Thu 07:39:09 AM 41.4481 -86.6547 326° Northwest 378 435 16,600 -2,390 Descending Chicago Center
Thu 07:40:11 AM 41.5525 -86.7236 334° Northwest 356 410 14,100 -2,146 Descending Chicago Center
Thu 07:41:12 AM 41.6353 -86.7792 333° Northwest 345 397 12,200 -1,024 Descending Chicago Center
Thu 07:42:14 AM 41.7236 -86.8028 349° North 335 386 12,000 -98 Descending Chicago Center
Thu 07:43:15 AM 41.8178 -86.8183 353° North 341 392 12,000 -98 Level Chicago Center
Thu 07:44:16 AM 41.8942 -86.8703 333° Northwest 319 367 11,800 -878 Descending Chicago Center
Thu 07:45:18 AM 41.9325 -86.9764 296° West 317 365 10,200 -1,073 Descending Chicago Center
Thu 07:46:19 AM 41.9750 -87.0867 297° West 281 323 9,600 -585 Descending Chicago Center
Thu 07:47:21 AM 41.9836 -87.1822 277° West 263 303 9,000 -780 Descending Chicago Center
Thu 07:48:22 AM 41.9836 -87.2797 270° West 262 302 8,000 -976 Descending Chicago Center
Thu 07:49:24 AM 41.9831 -87.3775 270° West 264 304 7,000 -585 Descending Chicago Center
Thu 07:50:25 AM 41.9836 -87.4744 270° West 262 302 6,800 -683 Descending Chicago Center
Thu 07:51:27 AM 41.9828 -87.5528 269° West 219 252 5,600 -1,220 Descending Chicago Center
Thu 07:52:28 AM 41.9833 -87.6331 271° West 215 247 4,300 -1,263 Descending Chicago Center
Thu 07:53:02 AM 41.9833 -87.6833 270° West 216 249 3,600 -1,149 Descending Chicago TRACON
Thu 07:54:02 AM 41.9833 -87.7667 270° West 205 236 2,500 -1,043 Descending Chicago TRACON
Thu 07:54:57 AM 41.9833 -87.8333 270° West 154 177 1,600 -835 Descending Chicago TRACON
Thu 07:55:57 AM 41.9833 -87.8833 270° West 139 160 900 -700 Descending Chicago TRACON

Login

Don't have an account? Register now (free) for customized features, flight alerts, and more!